createdAt,value
2022-09-15T00:00:48.039Z,-23723.47
2022-09-15T00:02:51.026Z,-23724.72
2022-09-15T00:04:53.876Z,-23723.78
2022-09-15T00:06:56.531Z,-23720.34
2022-09-15T00:08:59.378Z,-23722.84
2022-09-15T00:11:07.180Z,-23722.22
2022-09-15T00:13:09.784Z,-23721.91
2022-09-15T00:15:14.595Z,-23721.91
2022-09-15T00:17:17.179Z,-23722.22
2022-09-15T00:19:19.752Z,-23723.47
2022-09-15T00:21:24.096Z,-23723.16
2022-09-15T00:23:26.712Z,-23722.84
2022-09-15T00:25:29.292Z,-23719.69
2022-09-15T00:27:33.665Z,-23719.38
2022-09-15T00:29:37.069Z,-23721.59
2022-09-15T00:31:39.652Z,-23726.63
2022-09-15T00:33:42.272Z,-23725.06
2022-09-15T00:35:47.394Z,-23727.56
2022-09-15T00:37:49.944Z,-23725.69
2022-09-15T00:39:54.146Z,-23727.09
2022-09-15T00:41:56.898Z,-23727.56
2022-09-15T00:44:03.395Z,-23725.22
2022-09-15T00:46:05.892Z,-23722.84
2022-09-15T00:48:12.972Z,-23722.38
2022-09-15T00:50:19.080Z,-23721.59
2022-09-15T00:52:27.444Z,-23719.06
2022-09-15T00:54:33.919Z,-23720.81
2022-09-15T00:56:37.543Z,-23720.97
2022-09-15T00:58:44.363Z,-23723.78
2022-09-15T01:00:52.498Z,-23722.53
2022-09-15T01:02:56.158Z,-23723.00
2022-09-15T01:04:59.800Z,-23723.16
2022-09-15T01:07:06.071Z,-23721.91
2022-09-15T01:09:15.462Z,-23719.06
2022-09-15T01:11:18.484Z,-23719.69
2022-09-15T01:13:21.132Z,-23719.06
2022-09-15T01:15:27.636Z,-23718.75
2022-09-15T01:17:40.235Z,-23719.53
2022-09-15T01:20:09.796Z,-23714.81
2022-09-15T01:22:25.132Z,-23714.97
2022-09-15T01:24:45.327Z,-23713.25
2022-09-15T01:27:13.665Z,-23713.41
2022-09-15T01:29:47.884Z,-23715.59
2022-09-15T01:32:16.455Z,-23716.22
2022-09-15T01:34:21.846Z,-23714.34
2022-09-15T01:36:33.630Z,-23713.72
2022-09-15T01:38:47.069Z,-23713.72
2022-09-15T01:40:55.362Z,-23714.03
2022-09-15T01:42:59.875Z,-23710.56
2022-09-15T01:45:09.045Z,-23711.19
2022-09-15T01:47:14.870Z,-23710.56
2022-09-15T01:49:21.069Z,-23709.00
2022-09-15T01:51:26.689Z,-23707.09
2022-09-15T01:53:29.864Z,-23709.63
2022-09-15T01:55:40.267Z,-23710.25
2022-09-15T01:57:43.100Z,-23710.25
2022-09-15T01:59:45.724Z,-23711.19
2022-09-15T02:01:57.277Z,-23709.78
2022-09-15T02:04:05.135Z,-23708.53
2022-09-15T02:06:14.554Z,-23708.06
2022-09-15T02:08:25.432Z,-23707.41
2022-09-15T02:10:35.554Z,-23708.69
2022-09-15T02:12:47.695Z,-23708.69
2022-09-15T02:14:57.867Z,-23708.06
2022-09-15T02:17:02.911Z,-23707.72
2022-09-15T02:19:15.876Z,-23709.16
2022-09-15T02:21:23.285Z,-23709.94
2022-09-15T02:23:29.281Z,-23709.63
2022-09-15T02:25:34.803Z,-23711.97
2022-09-15T02:27:44.140Z,-23710.56
2022-09-15T02:29:48.766Z,-23712.47
2022-09-15T02:31:54.281Z,-23709.16
2022-09-15T02:34:02.751Z,-23710.56
2022-09-15T02:36:05.952Z,-23710.56
2022-09-15T02:38:10.626Z,-23707.91
2022-09-15T02:40:13.459Z,-23708.69
2022-09-15T02:42:25.160Z,-23709.00
2022-09-15T02:44:27.884Z,-23710.25
2022-09-15T02:46:31.043Z,-23707.91
2022-09-15T02:48:33.594Z,-23712.31
2022-09-15T02:50:37.925Z,-23711.03
2022-09-15T02:52:40.479Z,-23714.97
2022-09-15T02:54:43.204Z,-23713.25
2022-09-15T02:56:46.314Z,-23711.03
2022-09-15T02:58:49.182Z,-23710.25
2022-09-15T03:00:54.152Z,-23710.25
2022-09-15T03:02:56.979Z,-23710.56
2022-09-15T03:04:59.534Z,-23711.19
2022-09-15T03:07:08.870Z,-23709.78
2022-09-15T03:09:11.475Z,-23709.00
2022-09-15T03:11:14.429Z,-23710.25
2022-09-15T03:13:18.352Z,-23708.22
2022-09-15T03:15:23.198Z,-23707.72
2022-09-15T03:17:25.742Z,-23706.31
2022-09-15T03:19:28.402Z,-23707.56
2022-09-15T03:21:31.599Z,-23707.41
2022-09-15T03:23:36.032Z,-23705.38
2022-09-15T03:25:38.608Z,-23705.06
2022-09-15T03:27:41.257Z,-23708.69
2022-09-15T03:29:44.030Z,-23705.84
2022-09-15T03:31:46.646Z,-23706.16
2022-09-15T03:33:49.314Z,-23704.75
2022-09-15T03:35:52.828Z,-23704.91
2022-09-15T03:37:55.738Z,-23704.91
2022-09-15T03:39:59.732Z,-23705.22
2022-09-15T03:42:02.344Z,-23702.84
2022-09-15T03:44:05.148Z,-23704.91
2022-09-15T03:46:09.073Z,-23700.50
2022-09-15T03:48:11.719Z,-23700.81
2022-09-15T03:50:14.380Z,-23702.38
2022-09-15T03:52:16.933Z,-23699.88
2022-09-15T03:54:20.333Z,-23701.13
2022-09-15T03:56:27.226Z,-23700.97
2022-09-15T03:58:30.906Z,-23700.19
2022-09-15T04:00:34.117Z,-23697.50
2022-09-15T04:02:36.694Z,-23702.53
2022-09-15T04:04:39.286Z,-23699.25
2022-09-15T04:06:42.247Z,-23698.75
2022-09-15T04:08:44.850Z,-23699.25
2022-09-15T04:10:48.129Z,-23699.38
2022-09-15T04:12:52.266Z,-23697.34
2022-09-15T04:14:55.275Z,-23698.13
2022-09-15T04:16:57.869Z,-23699.72
2022-09-15T04:19:00.802Z,-23697.81
2022-09-15T04:21:05.546Z,-23697.81
2022-09-15T04:23:08.175Z,-23697.66
2022-09-15T04:25:11.071Z,-23699.56
2022-09-15T04:27:13.612Z,-23699.25
2022-09-15T04:29:17.559Z,-23700.19
2022-09-15T04:31:20.761Z,-23697.66
2022-09-15T04:33:23.395Z,-23697.03
2022-09-15T04:35:26.055Z,-23697.03
2022-09-15T04:37:28.611Z,-23697.97
2022-09-15T04:39:31.333Z,-23695.78
2022-09-15T04:41:34.689Z,-23697.03
2022-09-15T04:43:37.515Z,-23698.59
2022-09-15T04:45:41.437Z,-23697.34
2022-09-15T04:47:43.990Z,-23696.25
2022-09-15T04:49:46.724Z,-23697.03
2022-09-15T04:51:49.313Z,-23696.09
2022-09-15T04:53:52.657Z,-23697.34
2022-09-15T04:56:01.899Z,-23695.44
2022-09-15T04:58:05.123Z,-23694.19
2022-09-15T05:00:09.122Z,-23695.63
2022-09-15T05:02:13.129Z,-23695.44
2022-09-15T05:04:15.785Z,-23692.63
2022-09-15T05:06:21.896Z,-23696.09
2022-09-15T05:08:24.531Z,-23695.78
2022-09-15T05:10:27.156Z,-23696.09
2022-09-15T05:12:29.705Z,-23694.97
2022-09-15T05:14:32.481Z,-23697.50
2022-09-15T05:16:35.170Z,-23696.56
2022-09-15T05:18:39.267Z,-23697.66
2022-09-15T05:20:42.154Z,-23695.44
2022-09-15T05:22:44.996Z,-23696.25
2022-09-15T05:24:47.653Z,-23694.66
2022-09-15T05:26:50.719Z,-23696.88
2022-09-15T05:28:54.080Z,-23697.66
2022-09-15T05:30:57.264Z,-23695.94
2022-09-15T05:32:59.941Z,-23697.50
2022-09-15T05:35:05.277Z,-23699.56
2022-09-15T05:37:07.884Z,-23697.34
2022-09-15T05:39:10.476Z,-23697.97
2022-09-15T05:41:17.490Z,-23698.75
2022-09-15T05:43:20.204Z,-23700.97
2022-09-15T05:45:22.768Z,-23698.75
2022-09-15T05:47:25.467Z,-23700.03
2022-09-15T05:49:29.408Z,-23697.97
2022-09-15T05:51:33.326Z,-23700.34
2022-09-15T05:53:36.700Z,-23702.06
2022-09-15T05:55:39.305Z,-23699.72
2022-09-15T05:57:41.898Z,-23699.72
2022-09-15T05:59:44.472Z,-23700.19
2022-09-15T06:01:47.128Z,-23698.44
2022-09-15T06:03:49.785Z,-23704.59
2022-09-15T06:06:00.211Z,-23702.53
2022-09-15T06:08:04.249Z,-23703.34
2022-09-15T06:10:09.190Z,-23702.69
2022-09-15T06:12:11.763Z,-23705.38
2022-09-15T06:14:14.500Z,-23707.25
2022-09-15T06:16:19.370Z,-23704.91
2022-09-15T06:18:22.027Z,-23707.09
2022-09-15T06:20:25.394Z,-23705.69
2022-09-15T06:22:29.154Z,-23709.16
2022-09-15T06:24:33.077Z,-23709.63
2022-09-15T06:26:35.781Z,-23708.69
2022-09-15T06:28:39.308Z,-23707.72
2022-09-15T06:30:42.114Z,-23707.72
2022-09-15T06:32:48.039Z,-23708.53
2022-09-15T06:34:50.988Z,-23704.75
2022-09-15T06:36:53.625Z,-23705.06
2022-09-15T06:38:57.247Z,-23703.47
2022-09-15T06:41:01.197Z,-23706.31
2022-09-15T06:43:03.844Z,-23704.59
2022-09-15T06:45:07.014Z,-23706.78
2022-09-15T06:47:10.531Z,-23708.38
2022-09-15T06:49:13.140Z,-23710.56
2022-09-15T06:51:17.185Z,-23713.72
2022-09-15T06:53:20.084Z,-23711.50
2022-09-15T06:55:22.713Z,-23708.06
2022-09-15T06:57:26.669Z,-23705.53
2022-09-15T06:59:29.290Z,-23699.56
2022-09-15T07:01:33.209Z,-23698.59
2022-09-15T07:03:35.919Z,-23696.09
2022-09-15T07:05:38.698Z,-23695.16
2022-09-15T07:07:41.332Z,-23695.78
2022-09-15T07:09:48.369Z,-23696.56
2022-09-15T07:11:51.587Z,-23698.91
2022-09-15T07:13:55.787Z,-23693.41
2022-09-15T07:16:00.528Z,-23691.34
2022-09-15T07:18:03.184Z,-23686.00
2022-09-15T07:20:06.599Z,-23689.78
2022-09-15T07:22:11.899Z,-23694.03
2022-09-15T07:24:14.678Z,-23690.88
2022-09-15T07:26:19.093Z,-23694.19
2022-09-15T07:28:21.694Z,-23690.41
2022-09-15T07:30:25.647Z,-23691.19
2022-09-15T07:32:28.284Z,-23691.34
2022-09-15T07:34:31.033Z,-23698.59
2022-09-15T07:36:33.803Z,-23699.06
2022-09-15T07:38:40.039Z,-23697.66
2022-09-15T07:40:42.646Z,-23697.66
2022-09-15T07:42:45.585Z,-23699.88
2022-09-15T07:44:48.164Z,-23697.19
2022-09-15T07:46:52.102Z,-23697.81
2022-09-15T07:48:56.222Z,-23694.97
2022-09-15T07:50:59.825Z,-23697.50
2022-09-15T07:53:02.537Z,-23694.19
2022-09-15T07:55:05.733Z,-23691.19
2022-09-15T07:57:08.402Z,-23689.47
2022-09-15T07:59:10.970Z,-23691.06
2022-09-15T08:01:15.529Z,-23688.84
2022-09-15T08:03:19.628Z,-23689.00
2022-09-15T08:05:23.557Z,-23690.41
2022-09-15T08:07:26.226Z,-23690.41
2022-09-15T08:09:28.811Z,-23691.69
2022-09-15T08:11:31.536Z,-23689.78
2022-09-15T08:13:34.154Z,-23691.69
2022-09-15T08:15:38.655Z,-23689.16
2022-09-15T08:17:41.290Z,-23689.78
2022-09-15T08:19:45.795Z,-23692.94
2022-09-15T08:21:48.410Z,-23690.09
2022-09-15T08:23:52.708Z,-23688.53
2022-09-15T08:25:55.330Z,-23691.84
2022-09-15T08:27:59.487Z,-23690.25
2022-09-15T08:30:02.208Z,-23690.41
2022-09-15T08:32:05.131Z,-23690.25
2022-09-15T08:34:07.998Z,-23692.63
2022-09-15T08:36:12.047Z,-23694.50
2022-09-15T08:38:14.621Z,-23694.03
2022-09-15T08:40:21.079Z,-23693.25
2022-09-15T08:42:26.716Z,-23698.91
2022-09-15T08:44:37.425Z,-23697.97
2022-09-15T08:46:43.841Z,-23700.81
2022-09-15T08:48:49.735Z,-23700.34
2022-09-15T08:50:57.120Z,-23701.59
2022-09-15T08:53:06.674Z,-23703.00
2022-09-15T08:55:16.581Z,-23707.25
2022-09-15T08:57:23.817Z,-23706.16
2022-09-15T08:59:36.641Z,-23707.09
2022-09-15T09:02:15.356Z,-23704.59
2022-09-15T09:04:38.173Z,-23705.69
2022-09-15T09:06:48.084Z,-23712.63
2022-09-15T09:09:16.885Z,-23713.72
2022-09-15T09:11:27.280Z,-23711.81
2022-09-15T09:13:38.184Z,-23713.41
2022-09-15T09:15:56.503Z,-23714.97
2022-09-15T09:18:29.355Z,-23711.50
2022-09-15T09:20:45.354Z,-23717.66
2022-09-15T09:22:51.624Z,-23711.50
2022-09-15T09:24:59.236Z,-23714.66
2022-09-15T09:27:01.859Z,-23713.41
2022-09-15T09:29:12.893Z,-23714.34
2022-09-15T09:31:20.433Z,-23720.00
2022-09-15T09:33:30.298Z,-23725.38
2022-09-15T09:35:37.577Z,-23722.84
2022-09-15T09:37:40.592Z,-23725.69
2022-09-15T09:39:43.463Z,-23726.31
2022-09-15T09:41:47.523Z,-23731.34
2022-09-15T09:43:50.724Z,-23736.84
2022-09-15T09:45:53.385Z,-23719.22
2022-09-15T09:48:01.714Z,-23720.19
2022-09-15T09:50:04.903Z,-23723.47
2022-09-15T09:52:07.558Z,-23720.97
2022-09-15T09:54:16.126Z,-23719.06
2022-09-15T09:56:24.464Z,-23716.88
2022-09-15T09:58:28.445Z,-23722.69
2022-09-15T10:00:33.550Z,-23726.94
2022-09-15T10:02:47.888Z,-23726.16
2022-09-15T10:04:52.969Z,-23724.09
2022-09-15T10:06:57.072Z,-23734.31
2022-09-15T10:09:04.334Z,-23737.94
2022-09-15T10:11:10.175Z,-23732.44
2022-09-15T10:13:13.500Z,-23736.53
2022-09-15T10:15:25.345Z,-23740.16
2022-09-15T10:17:39.065Z,-23737.94
2022-09-15T10:19:47.137Z,-23725.84
2022-09-15T10:21:49.793Z,-23700.81
2022-09-15T10:23:52.852Z,-23707.72
2022-09-15T10:26:00.487Z,-23691.69
2022-09-15T10:28:12.876Z,-23687.72
2022-09-15T10:30:19.680Z,-23683.78
2022-09-15T10:32:38.815Z,-23676.84
2022-09-15T10:34:41.756Z,-23678.13
2022-09-15T10:36:45.027Z,-23675.59
2022-09-15T10:38:50.389Z,-23674.34
2022-09-15T10:41:01.573Z,-23672.13
2022-09-15T10:43:21.227Z,-23673.41
2022-09-15T10:45:27.822Z,-23668.34
2022-09-15T10:47:43.239Z,-23673.88
2022-09-15T10:50:00.925Z,-23673.22
2022-09-15T10:52:14.758Z,-23672.75
2022-09-15T10:54:39.160Z,-23665.81
2022-09-15T10:56:44.133Z,-23659.84
2022-09-15T10:59:03.818Z,-23658.09
2022-09-15T11:01:22.075Z,-23651.00
2022-09-15T11:03:32.804Z,-23644.38
2022-09-15T11:05:56.698Z,-23655.28
2022-09-15T11:08:18.193Z,-23642.31
2022-09-15T11:10:26.513Z,-23635.38
2022-09-15T11:12:41.397Z,-23635.22
2022-09-15T11:14:54.900Z,-23632.38
2022-09-15T11:17:12.299Z,-23633.50
2022-09-15T11:19:32.102Z,-23643.28
2022-09-15T11:21:38.932Z,-23631.44
2022-09-15T11:23:47.087Z,-23643.44
2022-09-15T11:25:56.903Z,-23634.91
2022-09-15T11:28:05.345Z,-23632.38
2022-09-15T11:30:17.113Z,-23636.19
2022-09-15T11:32:25.399Z,-23627.03
2022-09-15T11:34:34.678Z,-23630.50
2022-09-15T11:36:41.596Z,-23635.38
2022-09-15T11:38:49.567Z,-23625.91
2022-09-15T11:40:58.817Z,-23626.53
2022-09-15T11:43:07.143Z,-23643.13
2022-09-15T11:45:16.951Z,-23640.44
2022-09-15T11:47:29.409Z,-23644.69
2022-09-15T11:49:38.076Z,-23630.19
2022-09-15T11:51:46.009Z,-23619.91
2022-09-15T11:53:53.982Z,-23637.13
2022-09-15T11:56:06.787Z,-23634.28
2022-09-15T11:58:22.037Z,-23639.34
2022-09-15T12:00:25.483Z,-23643.75
2022-09-15T12:02:33.993Z,-23653.06
2022-09-15T12:04:43.964Z,-23663.31
2022-09-15T12:06:52.256Z,-23650.38
2022-09-15T12:09:00.792Z,-23645.97
2022-09-15T12:11:08.995Z,-23627.81
2022-09-15T12:13:17.843Z,-23623.22
2022-09-15T12:15:27.138Z,-23622.28
2022-09-15T12:17:36.503Z,-23627.34
2022-09-15T12:19:49.729Z,-23626.06
2022-09-15T12:21:56.943Z,-23627.34
2022-09-15T12:24:08.150Z,-23617.53
2022-09-15T12:26:17.875Z,-23623.22
2022-09-15T12:28:28.572Z,-23627.66
2022-09-15T12:30:42.047Z,-23633.66
2022-09-15T12:32:44.845Z,-23622.75
2022-09-15T12:35:13.341Z,-23628.28
2022-09-15T12:37:16.811Z,-23625.13
2022-09-15T12:39:41.712Z,-23632.69
2022-09-15T12:41:48.696Z,-23652.25
2022-09-15T12:43:54.376Z,-23651.31
2022-09-15T12:45:59.468Z,-23650.38
2022-09-15T12:48:05.645Z,-23645.31
2022-09-15T12:50:24.666Z,-23645.97
2022-09-15T12:52:27.577Z,-23648.78
2022-09-15T12:54:34.053Z,-23651.94
2022-09-15T12:56:36.789Z,-23651.16
2022-09-15T12:58:42.500Z,-23653.22
2022-09-15T13:01:14.004Z,-23660.47
2022-09-15T13:03:28.280Z,-23657.00
2022-09-15T13:06:06.744Z,-23638.88
2022-09-15T13:08:15.129Z,-23642.47
2022-09-15T13:10:29.486Z,-23652.91
2022-09-15T13:12:38.008Z,-23663.94
2022-09-15T13:14:44.825Z,-23652.59
2022-09-15T13:16:54.055Z,-23644.53
2022-09-15T13:19:08.586Z,-23647.84
2022-09-15T13:21:16.783Z,-23652.59
2022-09-15T13:23:24.950Z,-23650.69
2022-09-15T13:25:30.144Z,-23656.06
2022-09-15T13:27:36.954Z,-23653.22
2022-09-15T13:29:58.805Z,-23670.25
2022-09-15T13:32:11.019Z,-23679.22
2022-09-15T13:35:04.477Z,-23684.91
2022-09-15T13:40:52.634Z,-23674.03
2022-09-15T13:43:18.017Z,-23675.28
2022-09-15T13:45:37.163Z,-23688.84
2022-09-15T13:47:55.153Z,-23689.47
2022-09-15T13:50:12.280Z,-23700.97
2022-09-15T13:52:27.957Z,-23702.06
2022-09-15T13:54:30.594Z,-23670.72
2022-09-15T13:56:37.451Z,-23678.44
2022-09-15T13:59:12.261Z,-23672.13
2022-09-15T14:01:07.949Z,-23690.09
2022-09-15T14:03:15.365Z,-23691.53
2022-09-15T14:05:20.108Z,-23709.94
2022-09-15T14:07:25.548Z,-23700.19
2022-09-15T14:09:33.094Z,-23701.75
2022-09-15T14:11:38.598Z,-23686.00
2022-09-15T14:13:47.576Z,-23705.06
2022-09-15T14:16:01.791Z,-23722.84
2022-09-15T14:18:04.670Z,-23717.34
2022-09-15T14:20:24.069Z,-23718.13
2022-09-15T14:22:29.355Z,-23698.75
2022-09-15T14:24:32.945Z,-23703.97
2022-09-15T14:26:36.928Z,-23697.03
2022-09-15T14:28:39.582Z,-23684.25
2022-09-15T14:30:48.843Z,-23694.66
2022-09-15T14:32:55.477Z,-23685.69
2022-09-15T14:35:05.477Z,-23700.66
2022-09-15T14:37:14.782Z,-23698.75
2022-09-15T14:39:20.460Z,-23711.34
2022-09-15T14:41:23.073Z,-23717.19
2022-09-15T14:43:27.230Z,-23712.16
2022-09-15T14:46:02.262Z,-23693.56
2022-09-15T14:48:07.282Z,-23700.81
2022-09-15T14:50:15.221Z,-23708.69
2022-09-15T14:52:27.186Z,-23704.44
2022-09-15T14:54:35.177Z,-23699.25
2022-09-15T14:56:41.885Z,-23692.31
2022-09-15T14:58:48.011Z,-23695.78
2022-09-15T15:00:58.012Z,-23693.25
2022-09-15T15:03:18.985Z,-23688.69
2022-09-15T15:05:27.437Z,-23677.50
2022-09-15T15:07:33.144Z,-23682.53
2022-09-15T15:09:43.103Z,-23688.53
2022-09-15T15:11:46.371Z,-23689.78
2022-09-15T15:13:52.750Z,-23696.56
2022-09-15T15:15:56.705Z,-23705.84
2022-09-15T15:17:59.549Z,-23699.56
2022-09-15T15:20:15.529Z,-23700.81
2022-09-15T15:22:21.870Z,-23692.94
2022-09-15T15:24:25.022Z,-23701.75
2022-09-15T15:26:36.603Z,-23702.06
2022-09-15T15:28:39.688Z,-23699.88
2022-09-15T15:30:47.490Z,-23704.59
2022-09-15T15:32:50.112Z,-23692.16
2022-09-15T15:34:55.767Z,-23700.81
2022-09-15T15:37:05.164Z,-23706.31
2022-09-15T15:39:20.211Z,-23707.72
2022-09-15T15:41:24.991Z,-23696.72
2022-09-15T15:43:28.845Z,-23694.66
2022-09-15T15:45:32.464Z,-23696.72
2022-09-15T15:47:37.860Z,-23693.88
2022-09-15T15:50:02.202Z,-23703.00
2022-09-15T15:52:05.776Z,-23700.19
2022-09-15T15:54:08.501Z,-23696.56
2022-09-15T15:56:11.224Z,-23703.63
2022-09-15T15:58:15.270Z,-23701.28
2022-09-15T16:00:22.308Z,-23698.91
2022-09-15T16:02:26.754Z,-23698.28
2022-09-15T16:04:30.029Z,-23700.50
2022-09-15T16:06:33.680Z,-23691.69
2022-09-15T16:08:40.650Z,-23681.75
2022-09-15T16:10:47.547Z,-23680.00
2022-09-15T16:12:50.436Z,-23681.28
2022-09-15T16:14:53.054Z,-23683.78
2022-09-15T16:16:57.704Z,-23679.84
2022-09-15T16:19:00.281Z,-23678.75
2022-09-15T16:21:02.899Z,-23679.69
2022-09-15T16:23:06.028Z,-23681.75
2022-09-15T16:25:16.552Z,-23679.06
2022-09-15T16:27:19.474Z,-23681.28
2022-09-15T16:29:26.036Z,-23683.78
2022-09-15T16:31:28.865Z,-23679.06
2022-09-15T16:33:34.719Z,-23676.84
2022-09-15T16:35:45.913Z,-23677.03
2022-09-15T16:37:48.569Z,-23673.09
2022-09-15T16:39:52.442Z,-23671.81
2022-09-15T16:41:56.483Z,-23675.28
2022-09-15T16:43:59.202Z,-23673.41
2022-09-15T16:46:02.301Z,-23671.81
2022-09-15T16:48:05.256Z,-23669.78
2022-09-15T16:50:08.447Z,-23669.94
2022-09-15T16:52:13.557Z,-23670.25
2022-09-15T16:54:17.725Z,-23665.81
2022-09-15T16:56:20.329Z,-23669.63
2022-09-15T16:58:24.655Z,-23671.81
2022-09-15T17:00:30.623Z,-23666.47
2022-09-15T17:02:33.271Z,-23663.63
2022-09-15T17:04:35.859Z,-23665.34
2022-09-15T17:06:38.590Z,-23666.00
2022-09-15T17:08:41.260Z,-23664.88
2022-09-15T17:10:44.106Z,-23661.09
2022-09-15T17:12:46.779Z,-23663.31
2022-09-15T17:14:50.684Z,-23662.03
2022-09-15T17:16:53.456Z,-23662.34
2022-09-15T17:18:56.058Z,-23660.16
2022-09-15T17:20:58.878Z,-23659.69
2022-09-15T17:23:02.698Z,-23662.03
2022-09-15T17:25:19.227Z,-23659.84
2022-09-15T17:27:21.814Z,-23659.22
2022-09-15T17:29:24.656Z,-23663.63
2022-09-15T17:31:28.771Z,-23661.41
2022-09-15T17:33:32.773Z,-23660.31
2022-09-15T17:35:37.067Z,-23660.31
2022-09-15T17:37:39.690Z,-23660.00
2022-09-15T17:39:42.483Z,-23663.00
2022-09-15T17:41:47.024Z,-23660.47
2022-09-15T17:43:49.869Z,-23663.63
2022-09-15T17:45:53.222Z,-23659.69
2022-09-15T17:47:57.362Z,-23661.41
2022-09-15T17:49:59.907Z,-23662.22
2022-09-15T17:52:02.777Z,-23661.09
2022-09-15T17:54:07.325Z,-23660.47
2022-09-15T17:56:09.919Z,-23658.25
2022-09-15T17:58:12.745Z,-23659.53
2022-09-15T18:00:16.483Z,-23659.84
2022-09-15T18:02:20.322Z,-23661.09
2022-09-15T18:04:24.311Z,-23659.38
2022-09-15T18:06:27.369Z,-23658.75
2022-09-15T18:08:30.052Z,-23657.47
2022-09-15T18:10:34.384Z,-23657.63
2022-09-15T18:12:36.956Z,-23657.63
2022-09-15T18:14:39.544Z,-23658.41
2022-09-15T18:16:43.114Z,-23658.56
2022-09-15T18:18:47.163Z,-23658.56
2022-09-15T18:20:52.966Z,-23658.88
2022-09-15T18:22:56.656Z,-23657.63
2022-09-15T18:24:59.293Z,-23658.56
2022-09-15T18:27:01.847Z,-23660.16
2022-09-15T18:29:04.593Z,-23660.00
2022-09-15T18:31:07.495Z,-23662.34
2022-09-15T18:33:15.108Z,-23660.16
2022-09-15T18:35:19.475Z,-23661.41
2022-09-15T18:37:23.396Z,-23661.09
2022-09-15T18:39:26.347Z,-23661.41
2022-09-15T18:41:28.915Z,-23660.47
2022-09-15T18:43:31.493Z,-23660.63
2022-09-15T18:45:34.111Z,-23661.09
2022-09-15T18:47:37.425Z,-23661.88
2022-09-15T18:49:40.005Z,-23661.41
2022-09-15T18:51:57.784Z,-23658.88
2022-09-15T18:54:01.770Z,-23659.84
2022-09-15T18:56:10.927Z,-23657.31
2022-09-15T18:58:13.652Z,-23656.84
2022-09-15T19:00:19.170Z,-23656.06
2022-09-15T19:02:21.840Z,-23656.69
2022-09-15T19:04:28.386Z,-23656.06
2022-09-15T19:06:33.716Z,-23655.91
2022-09-15T19:08:36.843Z,-23654.78
2022-09-15T19:10:43.747Z,-23660.31
2022-09-15T19:12:46.527Z,-23654.78
2022-09-15T19:14:49.188Z,-23652.75
2022-09-15T19:16:58.090Z,-23653.22
2022-09-15T19:19:01.176Z,-23652.25
2022-09-15T19:21:08.096Z,-23652.25
2022-09-15T19:23:10.756Z,-23646.59
2022-09-15T19:25:13.690Z,-23645.47
2022-09-15T19:27:17.653Z,-23640.28
2022-09-15T19:29:20.252Z,-23641.22
2022-09-15T19:31:23.289Z,-23638.88
2022-09-15T19:33:26.867Z,-23634.91
2022-09-15T19:35:29.584Z,-23632.38
2022-09-15T19:37:32.186Z,-23633.97
2022-09-15T19:39:34.795Z,-23633.34
2022-09-15T19:41:37.384Z,-23628.91
2022-09-15T19:43:41.739Z,-23627.66
2022-09-15T19:45:44.924Z,-23628.28
2022-09-15T19:47:47.632Z,-23626.72
2022-09-15T19:49:52.304Z,-23625.44
2022-09-15T19:51:55.996Z,-23625.13
2022-09-15T19:53:59.459Z,-23623.56
2022-09-15T19:56:02.071Z,-23625.59
2022-09-15T19:58:04.655Z,-23622.28
2022-09-15T20:00:11.563Z,-23617.53
2022-09-15T20:02:14.285Z,-23617.06
2022-09-15T20:04:17.041Z,-23614.38
2022-09-15T20:06:19.755Z,-23619.13
2022-09-15T20:08:23.134Z,-23618.50
2022-09-15T20:10:25.737Z,-23616.75
2022-09-15T20:12:28.415Z,-23620.56
2022-09-15T20:14:31.566Z,-23617.22
2022-09-15T20:16:35.700Z,-23615.19
2022-09-15T20:18:41.289Z,-23612.19
2022-09-15T20:20:43.883Z,-23614.38
2022-09-15T20:22:46.706Z,-23613.28
2022-09-15T20:24:49.546Z,-23610.91
2022-09-15T20:26:53.420Z,-23612.03
2022-09-15T20:28:56.048Z,-23611.88
2022-09-15T20:31:01.126Z,-23612.50
2022-09-15T20:33:05.274Z,-23610.59
2022-09-15T20:35:08.205Z,-23610.59
2022-09-15T20:37:10.988Z,-23610.44
2022-09-15T20:39:15.491Z,-23608.06
2022-09-15T20:41:20.048Z,-23606.81
2022-09-15T20:43:22.786Z,-23605.84
2022-09-15T20:45:25.383Z,-23606.19
2022-09-15T20:47:28.042Z,-23606.50
2022-09-15T20:49:31.985Z,-23611.22
2022-09-15T20:51:35.278Z,-23605.53
2022-09-15T20:53:38.626Z,-23602.69
2022-09-15T20:55:41.244Z,-23603.34
2022-09-15T20:57:43.858Z,-23600.19
2022-09-15T20:59:46.429Z,-23599.06
2022-09-15T21:01:48.999Z,-23601.13
2022-09-15T21:03:52.149Z,-23598.91
2022-09-15T21:06:01.444Z,-23600.66
2022-09-15T21:08:04.099Z,-23598.28
2022-09-15T21:10:08.044Z,-23597.81
2022-09-15T21:12:10.833Z,-23597.97
2022-09-15T21:14:14.238Z,-23597.97
2022-09-15T21:16:18.827Z,-23596.53
2022-09-15T21:18:21.409Z,-23596.06
2022-09-15T21:20:24.018Z,-23596.38
2022-09-15T21:22:28.018Z,-23597.34
2022-09-15T21:24:30.590Z,-23595.75
2022-09-15T21:26:35.189Z,-23594.81
2022-09-15T21:28:38.565Z,-23596.88
2022-09-15T21:30:41.368Z,-23593.84
2022-09-15T21:32:44.029Z,-23594.16
2022-09-15T21:34:47.195Z,-23594.97
2022-09-15T21:36:51.602Z,-23592.28
2022-09-15T21:38:57.208Z,-23592.28
2022-09-15T21:40:59.887Z,-23593.06
2022-09-15T21:43:03.185Z,-23591.00
2022-09-15T21:45:06.886Z,-23593.38
2022-09-15T21:47:09.435Z,-23591.66
2022-09-15T21:49:12.138Z,-23593.38
2022-09-15T21:51:19.685Z,-23590.22
2022-09-15T21:53:25.005Z,-23588.63
2022-09-15T21:55:29.937Z,-23588.31
2022-09-15T21:57:32.513Z,-23590.84
2022-09-15T21:59:35.092Z,-23585.81
2022-09-15T22:01:37.831Z,-23585.66
2022-09-15T22:03:42.392Z,-23588.50
2022-09-15T22:05:47.050Z,-23585.16
2022-09-15T22:07:49.669Z,-23584.84
2022-09-15T22:09:52.296Z,-23589.13
2022-09-15T22:11:56.687Z,-23585.97
2022-09-15T22:13:59.313Z,-23585.47
2022-09-15T22:16:03.426Z,-23585.66
2022-09-15T22:18:06.643Z,-23585.31
2022-09-15T22:20:10.001Z,-23585.66
2022-09-15T22:22:12.615Z,-23585.47
2022-09-15T22:24:15.267Z,-23584.38
2022-09-15T22:26:20.700Z,-23584.69
2022-09-15T22:28:24.746Z,-23582.63
2022-09-15T22:30:27.468Z,-23582.78
2022-09-15T22:32:30.386Z,-23581.06
2022-09-15T22:34:33.064Z,-23580.91
2022-09-15T22:36:36.186Z,-23581.53
2022-09-15T22:38:38.951Z,-23579.31
2022-09-15T22:40:41.558Z,-23580.91
2022-09-15T22:42:44.224Z,-23578.53
2022-09-15T22:44:48.161Z,-23577.41
2022-09-15T22:46:51.293Z,-23577.91
2022-09-15T22:48:53.972Z,-23579.00
2022-09-15T22:50:56.650Z,-23575.38
2022-09-15T22:52:59.245Z,-23576.16
2022-09-15T22:55:02.252Z,-23574.41
2022-09-15T22:57:05.097Z,-23576.16
2022-09-15T22:59:07.706Z,-23577.56
2022-09-15T23:01:14.087Z,-23578.38
2022-09-15T23:03:16.763Z,-23577.09
2022-09-15T23:05:19.481Z,-23579.31
2022-09-15T23:07:22.061Z,-23577.41
2022-09-15T23:09:24.685Z,-23581.84
2022-09-15T23:11:29.834Z,-23579.78
2022-09-15T23:13:33.142Z,-23580.59
2022-09-15T23:15:36.581Z,-23579.16
2022-09-15T23:17:40.635Z,-23573.94
2022-09-15T23:19:43.220Z,-23570.63
2022-09-15T23:21:46.165Z,-23573.16
2022-09-15T23:23:49.415Z,-23571.56
2022-09-15T23:25:52.089Z,-23573.47
2022-09-15T23:27:54.691Z,-23574.56
2022-09-15T23:29:57.275Z,-23577.72
2022-09-15T23:31:59.861Z,-23582.16
2022-09-15T23:34:04.068Z,-23582.31
2022-09-15T23:36:10.219Z,-23582.16
2022-09-15T23:38:12.824Z,-23584.38
2022-09-15T23:40:15.589Z,-23583.44
2022-09-15T23:42:18.980Z,-23585.31
2022-09-15T23:44:21.822Z,-23587.69
2022-09-15T23:46:24.475Z,-23587.22
2022-09-15T23:48:27.768Z,-23587.22
2022-09-15T23:50:31.798Z,-23589.28
2022-09-15T23:52:34.453Z,-23591.34
2022-09-15T23:54:37.062Z,-23592.44
2022-09-15T23:56:39.647Z,-23594.03
2022-09-15T23:58:42.228Z,-23593.53
